createdAt,value
2022-11-25T00:00:01.634Z,26.90
2022-11-25T00:04:00.694Z,26.70
2022-11-25T00:07:27.844Z,25.20
2022-11-25T00:10:55.146Z,25.70
2022-11-25T00:14:22.382Z,26.50
2022-11-25T00:17:49.088Z,25.40
2022-11-25T00:21:20.181Z,23.80
2022-11-25T00:24:47.152Z,21.60
2022-11-25T00:28:18.546Z,25.10
2022-11-25T00:31:45.919Z,27.20
2022-11-25T00:35:16.088Z,25.20
2022-11-25T00:38:43.222Z,25.30
2022-11-25T00:42:28.430Z,26.70
2022-11-25T00:45:58.536Z,27.20
2022-11-25T00:49:26.741Z,25.30
2022-11-25T00:52:55.928Z,28.40
2022-11-25T00:56:23.835Z,30.60
2022-11-25T00:59:51.279Z,32.10
2022-11-25T01:03:21.197Z,29.60
2022-11-25T01:06:53.430Z,29.00
2022-11-25T01:10:21.672Z,31.40
2022-11-25T01:13:49.655Z,30.30
2022-11-25T01:17:16.824Z,35.20
2022-11-25T01:20:43.832Z,34.80
2022-11-25T01:24:14.067Z,35.00
2022-11-25T01:27:43.440Z,35.80
2022-11-25T01:31:12.705Z,36.80
2022-11-25T01:34:39.557Z,34.80
2022-11-25T01:38:06.921Z,33.70
2022-11-25T01:41:36.194Z,31.90
2022-11-25T01:45:34.493Z,31.80
2022-11-25T01:49:06.146Z,31.60
2022-11-25T01:52:37.685Z,27.80
2022-11-25T01:56:07.589Z,30.00
2022-11-25T01:59:44.025Z,26.40
2022-11-25T02:03:12.294Z,26.70
2022-11-25T02:06:44.334Z,24.30
2022-11-25T02:10:17.229Z,21.60
2022-11-25T02:17:10.832Z,21.70
2022-11-25T02:20:40.231Z,23.20
2022-11-25T02:24:16.145Z,21.20
2022-11-25T02:27:46.307Z,21.80
2022-11-25T02:31:13.593Z,22.70
2022-11-25T02:34:49.948Z,23.40
2022-11-25T02:38:20.876Z,24.60
2022-11-25T02:41:53.289Z,24.80
2022-11-25T02:45:27.923Z,24.70
2022-11-25T02:49:11.687Z,23.90
2022-11-25T02:52:41.065Z,23.20
2022-11-25T02:56:10.858Z,22.80
2022-11-25T02:59:38.829Z,22.20
2022-11-25T03:03:06.552Z,20.50
2022-11-25T03:06:41.255Z,20.20
2022-11-25T03:10:10.380Z,20.20
2022-11-25T03:13:40.395Z,20.70
2022-11-25T03:17:11.124Z,22.30
2022-11-25T03:20:39.951Z,21.50
2022-11-25T03:24:10.956Z,19.20
2022-11-25T03:27:42.817Z,21.00
2022-11-25T03:31:13.504Z,21.20
2022-11-25T03:34:43.061Z,22.00
2022-11-25T03:38:10.581Z,22.70
2022-11-25T03:41:44.514Z,22.80
2022-11-25T03:45:15.289Z,26.00
2022-11-25T03:48:44.330Z,25.00
2022-11-25T03:52:12.086Z,26.10
2022-11-25T03:55:41.174Z,25.50
2022-11-25T03:59:09.462Z,24.10
2022-11-25T04:02:37.016Z,26.10
2022-11-25T04:06:04.565Z,24.40
2022-11-25T04:09:35.372Z,21.90
2022-11-25T04:13:07.378Z,24.20
2022-11-25T04:16:41.053Z,23.50
2022-11-25T04:20:14.315Z,21.80
2022-11-25T04:23:45.170Z,23.80
2022-11-25T04:27:13.038Z,24.60
2022-11-25T04:30:42.376Z,24.20
2022-11-25T04:34:10.961Z,25.40
2022-11-25T04:37:44.197Z,26.00
2022-11-25T04:41:18.044Z,26.40
2022-11-25T04:45:01.041Z,19.60
2022-11-25T04:48:32.851Z,24.40
2022-11-25T04:52:00.090Z,26.40
2022-11-25T04:55:30.182Z,25.90
2022-11-25T04:59:16.635Z,26.80
2022-11-25T05:02:47.489Z,27.90
2022-11-25T05:06:22.579Z,26.40
2022-11-25T05:09:49.982Z,26.20
2022-11-25T05:13:25.044Z,28.10
2022-11-25T05:16:52.469Z,28.50
2022-11-25T05:20:27.427Z,28.80
2022-11-25T05:23:56.958Z,30.50
2022-11-25T05:27:26.574Z,31.10
2022-11-25T05:30:54.255Z,33.70
2022-11-25T05:34:21.036Z,34.40
2022-11-25T05:37:48.253Z,32.90
2022-11-25T05:41:15.043Z,33.70
2022-11-25T05:44:43.279Z,35.60
2022-11-25T05:48:10.285Z,37.80
2022-11-25T05:51:40.351Z,38.90
2022-11-25T05:55:10.694Z,37.70
2022-11-25T05:58:38.874Z,42.00
2022-11-25T06:02:06.668Z,40.20
2022-11-25T06:05:35.847Z,40.90
2022-11-25T06:09:03.289Z,43.80
2022-11-25T06:12:30.621Z,42.90
2022-11-25T06:16:03.543Z,43.20
2022-11-25T06:19:34.502Z,41.60
2022-11-25T06:23:02.430Z,39.30
2022-11-25T06:26:32.865Z,39.70
2022-11-25T06:30:01.103Z,37.30
2022-11-25T06:33:27.748Z,35.70
2022-11-25T06:36:55.816Z,38.10
2022-11-25T06:40:22.861Z,37.50
2022-11-25T06:43:51.330Z,40.50
2022-11-25T06:47:18.585Z,36.30
2022-11-25T06:50:45.424Z,36.60
2022-11-25T06:54:12.660Z,35.70
2022-11-25T06:57:39.374Z,36.40
2022-11-25T07:01:15.868Z,38.60
2022-11-25T07:04:44.944Z,36.20
2022-11-25T07:08:11.746Z,38.20
2022-11-25T07:11:41.674Z,38.20
2022-11-25T07:15:10.080Z,38.90
2022-11-25T07:18:39.898Z,43.00
2022-11-25T07:22:07.430Z,41.40
2022-11-25T07:25:38.417Z,42.80
2022-11-25T07:29:23.340Z,40.90
2022-11-25T07:32:58.407Z,40.40
2022-11-25T07:36:25.492Z,37.60
2022-11-25T07:39:52.121Z,39.60
2022-11-25T07:43:24.248Z,38.40
2022-11-25T07:46:52.290Z,36.60
2022-11-25T07:50:19.450Z,35.30
2022-11-25T07:53:57.053Z,37.10
2022-11-25T07:57:36.950Z,37.80
2022-11-25T08:01:09.770Z,42.50
2022-11-25T08:04:39.904Z,42.20
2022-11-25T08:08:06.869Z,42.40
2022-11-25T08:11:35.200Z,42.90
2022-11-25T08:15:06.042Z,41.60
2022-11-25T08:18:35.455Z,35.00
2022-11-25T08:22:02.225Z,42.70
2022-11-25T08:25:30.022Z,39.10
2022-11-25T08:28:58.051Z,42.60
2022-11-25T08:32:25.006Z,39.90
2022-11-25T08:35:58.303Z,36.90
2022-11-25T08:43:12.628Z,33.10
2022-11-25T08:46:41.120Z,35.00
2022-11-25T08:50:10.616Z,35.10
2022-11-25T08:53:38.613Z,32.30
2022-11-25T08:57:09.610Z,30.70
2022-11-25T09:00:36.477Z,26.40
2022-11-25T09:04:02.916Z,28.10
2022-11-25T09:07:30.944Z,27.80
2022-11-25T09:10:57.791Z,26.90
2022-11-25T09:14:25.296Z,29.40
2022-11-25T09:17:58.662Z,29.40
2022-11-25T09:21:26.125Z,31.90
2022-11-25T09:24:53.088Z,31.20
2022-11-25T09:28:19.676Z,32.80
2022-11-25T09:31:51.411Z,31.60
2022-11-25T09:35:21.976Z,34.60
2022-11-25T09:38:49.407Z,32.80
2022-11-25T09:42:51.814Z,34.40
2022-11-25T09:46:46.263Z,35.50
2022-11-25T09:50:22.283Z,34.70
2022-11-25T09:53:54.867Z,37.00
2022-11-25T09:57:27.700Z,36.70
2022-11-25T10:00:55.592Z,38.10
2022-11-25T10:04:26.935Z,33.90
2022-11-25T10:07:59.566Z,33.20
2022-11-25T10:11:36.404Z,36.20
2022-11-25T10:15:06.321Z,34.50
2022-11-25T10:18:40.969Z,37.60
2022-11-25T10:22:19.380Z,34.40
2022-11-25T10:25:51.884Z,37.10
2022-11-25T10:29:27.671Z,37.50
2022-11-25T10:33:04.984Z,38.40
2022-11-25T10:36:34.939Z,49.90
2022-11-25T10:40:01.848Z,40.20
2022-11-25T10:43:31.945Z,44.80
2022-11-25T10:47:17.517Z,35.30
2022-11-25T10:50:55.438Z,46.10
2022-11-25T10:54:27.635Z,36.90
2022-11-25T10:57:58.017Z,38.90
2022-11-25T11:01:26.539Z,42.10
2022-11-25T11:05:01.696Z,39.10
2022-11-25T11:08:38.364Z,35.60
2022-11-25T11:12:14.947Z,43.80
2022-11-25T11:15:49.955Z,38.90
2022-11-25T11:19:29.394Z,41.60
2022-11-25T11:23:10.477Z,43.10
2022-11-25T11:26:40.173Z,54.80
2022-11-25T11:30:15.811Z,42.70
2022-11-25T11:33:51.498Z,47.60
2022-11-25T11:37:43.924Z,56.60
2022-11-25T11:41:18.574Z,41.10
2022-11-25T11:45:00.628Z,51.80
2022-11-25T11:48:40.312Z,49.00
2022-11-25T11:52:13.157Z,43.90
2022-11-25T11:56:19.298Z,49.80
2022-11-25T11:59:53.783Z,56.50
2022-11-25T12:03:23.402Z,46.50
2022-11-25T12:07:04.266Z,57.70
2022-11-25T12:10:35.151Z,52.70
2022-11-25T12:14:07.030Z,43.50
2022-11-25T12:17:37.352Z,42.40
2022-11-25T12:21:06.558Z,46.60
2022-11-25T12:24:43.507Z,44.70
2022-11-25T12:28:14.286Z,45.80
2022-11-25T12:31:46.093Z,42.40
2022-11-25T12:35:23.400Z,42.10
2022-11-25T12:38:56.299Z,42.70
2022-11-25T12:42:29.943Z,46.60
2022-11-25T12:46:09.578Z,41.80
2022-11-25T12:49:46.959Z,42.70
2022-11-25T12:53:24.495Z,43.90
2022-11-25T12:57:09.319Z,41.50
2022-11-25T13:00:55.219Z,43.30
2022-11-25T13:04:38.445Z,44.50
2022-11-25T13:08:19.889Z,42.50
2022-11-25T13:12:06.036Z,42.10
2022-11-25T13:15:38.520Z,43.10
2022-11-25T13:19:13.519Z,41.10
2022-11-25T13:22:40.101Z,38.20
2022-11-25T13:26:41.013Z,38.30
2022-11-25T13:30:39.410Z,38.60
2022-11-25T13:34:28.305Z,39.00
2022-11-25T13:37:54.984Z,39.20
2022-11-25T13:41:38.752Z,39.00
2022-11-25T13:45:26.355Z,38.70
2022-11-25T13:48:54.514Z,35.70
2022-11-25T13:52:39.576Z,37.80
2022-11-25T13:56:27.049Z,36.90
2022-11-25T14:00:01.366Z,37.10
2022-11-25T14:03:54.373Z,40.90
2022-11-25T14:07:34.223Z,43.10
2022-11-25T14:11:23.828Z,56.10
2022-11-25T14:15:20.782Z,63.40
2022-11-25T14:19:49.612Z,40.50
2022-11-25T14:23:32.259Z,40.60
2022-11-25T14:27:03.566Z,37.90
2022-11-25T14:30:31.898Z,41.50
2022-11-25T14:34:05.047Z,45.90
2022-11-25T14:37:39.354Z,45.00
2022-11-25T14:41:14.587Z,41.50
2022-11-25T14:44:47.812Z,37.10
2022-11-25T14:48:19.169Z,39.90
2022-11-25T14:51:51.290Z,40.00
2022-11-25T14:55:29.980Z,38.00
2022-11-25T14:58:59.208Z,36.30
2022-11-25T15:02:33.532Z,37.60
2022-11-25T15:06:04.928Z,35.80
2022-11-25T15:09:33.912Z,39.90
2022-11-25T15:13:01.966Z,40.40
2022-11-25T15:16:38.629Z,37.10
2022-11-25T15:20:19.141Z,37.80
2022-11-25T15:23:50.926Z,42.30
2022-11-25T15:27:26.492Z,38.40
2022-11-25T15:31:11.278Z,38.30
2022-11-25T15:38:18.146Z,37.90
2022-11-25T15:41:51.656Z,40.20
2022-11-25T15:49:06.003Z,36.10
2022-11-25T15:52:38.505Z,37.00
2022-11-25T15:56:12.146Z,35.60
2022-11-25T15:59:57.920Z,36.60
2022-11-25T16:03:25.305Z,37.50
2022-11-25T16:07:02.754Z,37.60
2022-11-25T16:10:34.550Z,42.30
2022-11-25T16:14:21.601Z,44.30
2022-11-25T16:18:02.638Z,39.90
2022-11-25T16:21:53.929Z,44.90
2022-11-25T16:25:35.623Z,41.00
2022-11-25T16:29:15.712Z,39.20
2022-11-25T16:32:45.642Z,39.70
2022-11-25T16:36:15.382Z,40.10
2022-11-25T16:39:46.065Z,39.10
2022-11-25T16:43:23.020Z,42.50
2022-11-25T16:46:52.985Z,41.90
2022-11-25T16:50:22.896Z,41.00
2022-11-25T16:53:54.160Z,44.70
2022-11-25T16:57:26.852Z,41.70
2022-11-25T17:01:01.192Z,41.10
2022-11-25T17:04:39.673Z,42.30
2022-11-25T17:08:09.434Z,43.00
2022-11-25T17:11:46.123Z,39.40
2022-11-25T17:15:18.826Z,37.30
2022-11-25T17:18:46.791Z,38.80
2022-11-25T17:22:20.607Z,39.40
2022-11-25T17:25:52.413Z,42.90
2022-11-25T17:29:28.911Z,43.70
2022-11-25T17:33:01.982Z,41.70
2022-11-25T17:36:32.888Z,37.80
2022-11-25T17:40:01.859Z,39.30
2022-11-25T17:43:34.809Z,40.90
2022-11-25T17:47:02.152Z,39.40
2022-11-25T17:50:30.229Z,41.30
2022-11-25T17:53:58.378Z,37.60
2022-11-25T17:57:29.356Z,38.90
2022-11-25T18:00:56.541Z,37.70
2022-11-25T18:04:27.403Z,40.10
2022-11-25T18:07:56.976Z,37.70
2022-11-25T18:11:28.869Z,38.90
2022-11-25T18:14:57.006Z,38.50
2022-11-25T18:18:26.167Z,36.70
2022-11-25T18:22:01.311Z,38.20
2022-11-25T18:25:32.347Z,50.50
2022-11-25T18:29:08.537Z,57.70
2022-11-25T18:32:42.976Z,57.20
2022-11-25T18:36:24.433Z,52.70
2022-11-25T18:40:05.986Z,58.00
2022-11-25T18:47:35.360Z,53.00
2022-11-25T18:51:04.409Z,53.50
2022-11-25T18:54:39.968Z,51.70
2022-11-25T18:58:17.755Z,47.40
2022-11-25T19:01:49.599Z,46.30
2022-11-25T19:05:24.370Z,42.30
2022-11-25T19:08:53.543Z,42.60
2022-11-25T19:12:36.768Z,43.10
2022-11-25T19:16:26.275Z,42.90
2022-11-25T19:19:53.692Z,44.80
2022-11-25T19:23:29.849Z,43.70
2022-11-25T19:26:58.399Z,43.90
2022-11-25T19:30:40.253Z,43.40
2022-11-25T19:34:08.749Z,42.40
2022-11-25T19:37:39.198Z,40.60
2022-11-25T19:41:11.050Z,40.30
2022-11-25T19:44:38.776Z,39.60
2022-11-25T19:48:10.351Z,37.50
2022-11-25T19:51:42.902Z,38.60
2022-11-25T19:55:18.948Z,40.80
2022-11-25T19:58:46.325Z,45.70
2022-11-25T20:02:17.818Z,47.30
2022-11-25T20:05:51.775Z,51.70
2022-11-25T20:09:19.842Z,67.40
2022-11-25T20:12:47.799Z,81.00
2022-11-25T20:16:20.315Z,75.90
2022-11-25T20:19:52.222Z,69.20
2022-11-25T20:23:24.721Z,73.20
2022-11-25T20:26:54.708Z,81.10
2022-11-25T20:30:24.911Z,100.50
2022-11-25T20:33:52.656Z,88.20
2022-11-25T20:37:26.145Z,71.60
2022-11-25T20:40:58.560Z,75.00
2022-11-25T20:44:30.445Z,64.30
2022-11-25T20:48:00.354Z,55.20
2022-11-25T20:51:28.302Z,54.80
2022-11-25T20:54:58.447Z,56.00
2022-11-25T20:58:30.544Z,58.60
2022-11-25T21:01:59.358Z,62.80
2022-11-25T21:05:31.733Z,64.60
2022-11-25T21:09:01.352Z,67.10
2022-11-25T21:12:51.220Z,73.40
2022-11-25T21:16:20.099Z,70.50
2022-11-25T21:19:47.150Z,71.70
2022-11-25T21:23:24.832Z,85.40
2022-11-25T21:26:53.457Z,94.00
2022-11-25T21:30:24.712Z,71.20
2022-11-25T21:33:56.008Z,65.10
2022-11-25T21:37:33.319Z,56.20
2022-11-25T21:41:02.167Z,59.70
2022-11-25T21:44:42.204Z,59.80
2022-11-25T21:48:18.285Z,58.10
2022-11-25T21:51:47.076Z,47.30
2022-11-25T21:55:15.588Z,53.00
2022-11-25T21:58:45.295Z,46.40
2022-11-25T22:02:20.329Z,43.80
2022-11-25T22:05:47.083Z,43.40
2022-11-25T22:09:14.030Z,44.30
2022-11-25T22:12:43.417Z,53.30
2022-11-25T22:16:14.762Z,68.40
2022-11-25T22:19:47.938Z,57.60
2022-11-25T22:23:18.433Z,56.40
2022-11-25T22:26:47.171Z,67.90
2022-11-25T22:30:20.911Z,68.30
2022-11-25T22:33:48.650Z,77.10
2022-11-25T22:37:49.343Z,74.90
2022-11-25T22:41:23.471Z,75.60
2022-11-25T22:44:52.997Z,73.30
2022-11-25T22:48:27.754Z,71.30
2022-11-25T22:51:55.952Z,76.40
2022-11-25T22:55:26.145Z,69.00
2022-11-25T22:59:00.327Z,68.20
2022-11-25T23:02:34.410Z,70.70
2022-11-25T23:09:29.722Z,41.80
2022-11-25T23:12:57.110Z,39.70
2022-11-25T23:16:24.122Z,40.30
2022-11-25T23:19:52.642Z,41.50
2022-11-25T23:23:21.063Z,41.20
2022-11-25T23:27:03.241Z,41.70
2022-11-25T23:30:31.216Z,44.80
2022-11-25T23:33:58.354Z,44.60
2022-11-25T23:37:25.445Z,43.50
2022-11-25T23:40:52.077Z,40.60
2022-11-25T23:44:24.241Z,41.40
2022-11-25T23:47:54.379Z,42.80
2022-11-25T23:51:22.352Z,46.00
2022-11-25T23:54:51.492Z,48.00
2022-11-25T23:58:20.946Z,48.10
